»·PEaware :: N6229P KVNY-KMRY

N6229P :: KVNY-KMRY

FLIGHT INFORMATION

Flight Status: Arrived
Operator: Privately registered:
United States
More flights under this callsign
Pilot: Thomas C. (17844)
Aircraft: PIPER PA-24 COMMANCHE
(PA24)
More flights by this aircraft type
Origin: KVNY Van Nuys
United States
Destination: KMRY Monterey Peninsula
United States
More flights between these airports :: More routes between these airports
Route: CANOG2 GMN V137 AVE V248 PRB V25 WIGGL
File this flight plan on PilotEdge
Remarks:
Altitude:
(Current/Filed)
12,000ft
Speed:
(Current/Filed)
150kts
Departed: 08-Jan-18 02:50 PM
Arrived: 08-Jan-18 04:31 PM
Distance/Time
Traveled:
218nm/1:41
Distance/Time
To Go:
Arrived

Flight Plot

Page will automatically refresh every two minutes.

Flight plan parsing failed; only flown route is shown


Map Options




Map Legend


Flown Route
Filed Route
Departure Airport
Arrival Airport
Navaid (VOR, NDB)
Fix

Horizontal Profiles

Position Reports

Time Latitude Longitude Heading Altitude Ground
Speed
08-Jan-18 14:29 34.215710 -118.488333 91 805ft 0kts
08-Jan-18 14:30 34.215710 -118.488333 91 805ft 0kts
08-Jan-18 14:31 34.215710 -118.488333 91 805ft 0kts
08-Jan-18 14:32 34.215710 -118.488333 91 805ft 0kts
08-Jan-18 14:33 34.215710 -118.488333 91 805ft 0kts
08-Jan-18 14:34 34.215710 -118.488333 91 805ft 0kts
08-Jan-18 14:35 34.215710 -118.488333 91 805ft 0kts
08-Jan-18 14:36 34.215710 -118.488333 91 805ft 0kts
08-Jan-18 14:37 34.215710 -118.488333 91 805ft 0kts
08-Jan-18 14:38 34.215710 -118.488333 91 805ft 0kts
08-Jan-18 14:39 34.215710 -118.488333 91 805ft 0kts
08-Jan-18 14:40 34.215710 -118.488333 91 805ft 0kts
08-Jan-18 14:42 34.215700 -118.488300 0 805ft 0kts
08-Jan-18 14:43 34.215710 -118.488333 91 805ft 0kts
08-Jan-18 14:44 34.215710 -118.488333 91 805ft 0kts
08-Jan-18 14:45 34.215710 -118.488333 91 805ft 0kts
08-Jan-18 14:46 34.215710 -118.488332 91 805ft 0kts
08-Jan-18 14:47 34.215710 -118.488328 91 805ft 0kts
08-Jan-18 14:48 34.215710 -118.488325 91 805ft 0kts
08-Jan-18 14:49 34.215704 -118.488272 109 805ft 1kts
08-Jan-18 14:50 34.215479 -118.488461 246 805ft 0kts
08-Jan-18 14:51 34.216044 -118.489037 356 805ft 12kts
08-Jan-18 14:52 34.218237 -118.489345 247 805ft 0kts
08-Jan-18 14:53 34.218236 -118.489349 247 805ft 0kts
08-Jan-18 14:54 34.218235 -118.489353 247 805ft 0kts
08-Jan-18 14:55 34.217772 -118.489886 174 805ft 13kts
08-Jan-18 14:56 34.193869 -118.487813 180 1556ft 110kts
08-Jan-18 14:57 34.169781 -118.500082 228 2154ft 90kts
08-Jan-18 14:58 34.151842 -118.523488 226 2941ft 104kts
08-Jan-18 14:59 34.143301 -118.553624 321 4044ft 114kts
08-Jan-18 15:00 34.173160 -118.564843 344 5180ft 115kts
08-Jan-18 15:01 34.204546 -118.576573 335 6243ft 119kts
08-Jan-18 15:02 34.236460 -118.590929 330 7176ft 123kts
08-Jan-18 15:03 34.269083 -118.606412 332 7707ft 127kts
08-Jan-18 15:04 34.300764 -118.620576 332 7274ft 118kts
08-Jan-18 15:05 34.331784 -118.634891 332 7832ft 118kts
08-Jan-18 15:06 34.363338 -118.649159 332 8422ft 122kts
08-Jan-18 15:07 34.395593 -118.663921 331 8967ft 124kts
08-Jan-18 15:08 34.428015 -118.678715 330 9508ft 125kts
08-Jan-18 15:09 34.460547 -118.693552 329 10027ft 125kts
08-Jan-18 15:10 34.493316 -118.708591 329 10504ft 126kts
08-Jan-18 15:11 34.520729 -118.721021 328 10870ft 126kts
08-Jan-18 15:12 34.559014 -118.739488 325 11334ft 127kts
08-Jan-18 15:13 34.586161 -118.752951 325 11691ft 126kts
08-Jan-18 15:14 34.624884 -118.772347 325 12015ft 137kts
08-Jan-18 15:15 34.655908 -118.787954 327 11969ft 152kts
08-Jan-18 15:16 34.701958 -118.810194 326 11989ft 155kts
08-Jan-18 15:17 34.735535 -118.827608 327 12008ft 162kts
08-Jan-18 15:18 34.778784 -118.848750 329 11998ft 168kts
08-Jan-18 15:19 34.820828 -118.872653 312 11986ft 162kts
08-Jan-18 15:20 34.847771 -118.912770 291 11980ft 151kts
08-Jan-18 15:21 34.874375 -118.953142 300 12073ft 151kts
08-Jan-18 15:22 34.902794 -118.991544 301 12103ft 155kts
08-Jan-18 15:23 34.932962 -119.029705 303 12096ft 157kts
08-Jan-18 15:24 34.962614 -119.068866 300 12072ft 156kts
08-Jan-18 15:25 34.992242 -119.107849 302 12055ft 156kts
08-Jan-18 15:26 35.021898 -119.146390 300 12043ft 155kts
08-Jan-18 15:27 35.051089 -119.185446 301 12035ft 155kts
08-Jan-18 15:28 35.080840 -119.223921 301 12023ft 155kts
08-Jan-18 15:29 35.109840 -119.262911 300 12021ft 155kts
08-Jan-18 15:30 35.139562 -119.301564 301 12016ft 155kts
08-Jan-18 15:31 35.168590 -119.340558 300 12011ft 155kts
08-Jan-18 15:32 35.198065 -119.379255 302 12010ft 156kts
08-Jan-18 15:33 35.227255 -119.417937 299 11989ft 150kts
08-Jan-18 15:34 35.254672 -119.454521 305 11989ft 146kts
08-Jan-18 15:35 35.282377 -119.490031 301 11991ft 143kts
08-Jan-18 15:36 35.308597 -119.526159 300 11990ft 142kts
08-Jan-18 15:37 35.335636 -119.561589 299 11987ft 141kts
08-Jan-18 15:38 35.361965 -119.597493 301 11989ft 142kts
08-Jan-18 15:39 35.389305 -119.632644 297 11992ft 140kts
08-Jan-18 15:40 35.415347 -119.669152 299 11997ft 143kts
08-Jan-18 15:41 35.443308 -119.704672 301 11979ft 144kts
08-Jan-18 15:42 35.470007 -119.741205 299 11969ft 143kts
08-Jan-18 15:43 35.496907 -119.777423 300 11964ft 143kts
08-Jan-18 15:44 35.524350 -119.813236 300 11965ft 143kts
08-Jan-18 15:45 35.550538 -119.849668 300 11961ft 142kts
08-Jan-18 15:46 35.577837 -119.885347 301 11960ft 143kts
08-Jan-18 15:47 35.604172 -119.921585 299 11962ft 142kts
08-Jan-18 15:48 35.631166 -119.957544 301 11948ft 143kts
08-Jan-18 15:49 35.654858 -119.995211 271 11942ft 128kts
08-Jan-18 15:50 35.651819 -120.036313 253 11944ft 121kts
08-Jan-18 15:51 35.651259 -120.078491 261 11945ft 124kts
08-Jan-18 15:52 35.651997 -120.120891 262 11943ft 124kts
08-Jan-18 15:53 35.654846 -120.163638 264 11942ft 125kts
08-Jan-18 15:54 35.656184 -120.206283 260 11940ft 123kts
08-Jan-18 15:55 35.657693 -120.248780 264 11938ft 125kts
08-Jan-18 15:56 35.659988 -120.291574 261 11938ft 124kts
08-Jan-18 15:57 35.660928 -120.334087 262 11936ft 125kts
08-Jan-18 15:58 35.663221 -120.376807 261 11935ft 125kts
08-Jan-18 15:59 35.664413 -120.419565 261 11934ft 125kts
08-Jan-18 16:00 35.666440 -120.462438 262 11933ft 125kts
08-Jan-18 16:01 35.667810 -120.505387 261 11933ft 125kts
08-Jan-18 16:02 35.669460 -120.548171 262 11931ft 125kts
08-Jan-18 16:03 35.671145 -120.590949 261 11931ft 125kts
08-Jan-18 16:04 35.673085 -120.633871 270 11928ft 129kts
08-Jan-18 16:05 35.700864 -120.667107 327 11934ft 156kts
08-Jan-18 16:06 35.739176 -120.691204 314 11933ft 151kts
08-Jan-18 16:07 35.771952 -120.722662 310 11932ft 149kts
08-Jan-18 16:08 35.804210 -120.754837 309 11933ft 149kts
08-Jan-18 16:09 35.836558 -120.787193 311 11933ft 150kts
08-Jan-18 16:10 35.869744 -120.818486 310 11934ft 149kts
08-Jan-18 16:11 35.902204 -120.850883 310 11933ft 150kts
08-Jan-18 16:12 35.935223 -120.882606 311 11932ft 151kts
08-Jan-18 16:13 35.967913 -120.914781 310 11932ft 150kts
08-Jan-18 16:14 36.000874 -120.947043 310 11931ft 151kts
08-Jan-18 16:15 36.035052 -120.979926 307 11924ft 157kts
08-Jan-18 16:16 36.069403 -121.014394 309 11922ft 159kts
08-Jan-18 16:17 36.104493 -121.048307 308 11920ft 160kts
08-Jan-18 16:18 36.139129 -121.082992 308 11916ft 160kts
08-Jan-18 16:19 36.174452 -121.117348 309 11913ft 161kts
08-Jan-18 16:20 36.209381 -121.151841 307 11912ft 160kts
08-Jan-18 16:21 36.245198 -121.187523 310 11589ft 173kts
08-Jan-18 16:22 36.284327 -121.226214 311 10789ft 180kts
08-Jan-18 16:23 36.323802 -121.265303 310 9543ft 181kts
08-Jan-18 16:24 36.363573 -121.303812 313 8349ft 180kts
08-Jan-18 16:25 36.402185 -121.342190 311 7292ft 176kts
08-Jan-18 16:26 36.439699 -121.381053 300 6676ft 172kts
08-Jan-18 16:27 36.449412 -121.427763 247 6105ft 127kts
08-Jan-18 16:28 36.460865 -121.475356 287 5703ft 157kts
08-Jan-18 16:29 36.476126 -121.521131 278 4976ft 136kts
08-Jan-18 16:30 36.491349 -121.566304 296 4865ft 143kts
08-Jan-18 16:31 36.507318 -121.614360 292 4388ft 161kts
08-Jan-18 16:32 36.527551 -121.667825 288 3351ft 177kts
08-Jan-18 16:33 36.546192 -121.723520 283 2564ft 169kts
08-Jan-18 16:34 36.562405 -121.772623 290 1458ft 128kts
08-Jan-18 16:35 36.575463 -121.810381 292 769ft 122kts
08-Jan-18 16:36 36.585155 -121.838964 292 262ft 63kts
08-Jan-18 16:37 36.588992 -121.850656 249 260ft 15kts
08-Jan-18 16:38 36.589233 -121.855675 253 260ft 27kts
08-Jan-18 16:39 36.589039 -121.858218 48 260ft 0kts
08-Jan-18 16:40 36.589039 -121.858218 48 260ft 0kts
08-Jan-18 16:41 36.589039 -121.858218 48 260ft 0kts
08-Jan-18 16:42 36.589039 -121.858218 48 260ft 0kts
08-Jan-18 16:43 36.589039 -121.858218 48 260ft 0kts
08-Jan-18 16:44 36.589039 -121.858218 48 260ft 0kts
08-Jan-18 16:45 36.589039 -121.858218 48 260ft 0kts
08-Jan-18 16:46 36.589039 -121.858218 48 260ft 0kts
08-Jan-18 16:47 36.589039 -121.858218 48 260ft 0kts
08-Jan-18 16:48 36.589039 -121.858218 48 260ft 0kts

Navigation Log

Ident Type
Flight plan parsing failed, navigation log unavailable